createdAt,value
2017-05-22T00:00:14.681Z,18.01
2017-05-22T00:00:40.815Z,18
2017-05-22T00:01:06.926Z,18
2017-05-22T00:01:33.028Z,17.98
2017-05-22T00:01:59.133Z,17.89
2017-05-22T00:02:25.278Z,17.87
2017-05-22T00:02:51.400Z,17.87
2017-05-22T00:03:17.536Z,17.8
2017-05-22T00:03:43.682Z,17.78
2017-05-22T00:04:09.843Z,17.79
2017-05-22T00:04:35.955Z,17.78
2017-05-22T00:05:02.081Z,17.79
2017-05-22T00:05:28.240Z,17.8
2017-05-22T00:05:54.330Z,17.79
2017-05-22T00:06:20.427Z,17.82
2017-05-22T00:06:46.590Z,17.71
2017-05-22T00:07:12.710Z,17.57
2017-05-22T00:07:38.802Z,17.68
2017-05-22T00:08:04.962Z,17.63
2017-05-22T00:08:31.119Z,17.65
2017-05-22T00:08:57.259Z,17.72
2017-05-22T00:09:23.420Z,17.68
2017-05-22T00:09:49.577Z,17.71
2017-05-22T00:10:15.694Z,17.6
2017-05-22T00:10:41.825Z,17.63
2017-05-22T00:11:07.933Z,17.74
2017-05-22T00:11:34.074Z,17.6
2017-05-22T00:12:00.198Z,17.67
2017-05-22T00:12:26.335Z,17.67
2017-05-22T00:12:52.451Z,17.63
2017-05-22T00:13:18.598Z,17.63
2017-05-22T00:13:44.732Z,17.46
2017-05-22T00:14:10.883Z,17.52
2017-05-22T00:14:37.025Z,17.57
2017-05-22T00:15:03.185Z,17.63
2017-05-22T00:15:29.311Z,17.49
2017-05-22T00:15:55.444Z,17.59
2017-05-22T00:16:21.559Z,17.67
2017-05-22T00:16:47.657Z,17.74
2017-05-22T00:17:13.818Z,17.76
2017-05-22T00:17:39.937Z,17.72
2017-05-22T00:18:06.077Z,17.72
2017-05-22T00:18:32.188Z,17.71
2017-05-22T00:18:58.423Z,17.64
2017-05-22T00:19:24.501Z,17.7
2017-05-22T00:19:50.664Z,17.74
2017-05-22T00:20:16.764Z,17.67
2017-05-22T00:20:42.865Z,17.7
2017-05-22T00:21:09.013Z,17.6
2017-05-22T00:21:35.128Z,17.7
2017-05-22T00:22:01.265Z,17.71
2017-05-22T00:22:27.366Z,17.7
2017-05-22T00:22:53.457Z,17.72
2017-05-22T00:23:19.616Z,17.65
2017-05-22T00:23:45.744Z,17.65
2017-05-22T00:24:11.888Z,17.65
2017-05-22T00:24:37.993Z,17.57
2017-05-22T00:25:04.184Z,17.6
2017-05-22T00:25:30.272Z,17.57
2017-05-22T00:25:56.397Z,17.65
2017-05-22T00:26:22.513Z,17.48
2017-05-22T00:26:48.643Z,17.48
2017-05-22T00:27:14.772Z,17.51
2017-05-22T00:27:40.865Z,17.45
2017-05-22T00:28:07.020Z,17.57
2017-05-22T00:28:33.184Z,17.64
2017-05-22T00:28:59.323Z,17.6
2017-05-22T00:29:25.447Z,17.68
2017-05-22T00:29:51.581Z,17.7
2017-05-22T00:30:17.697Z,17.65
2017-05-22T00:30:43.819Z,17.71
2017-05-22T00:31:09.928Z,17.68
2017-05-22T00:31:36.022Z,17.45
2017-05-22T00:32:02.203Z,17.46
2017-05-22T00:32:28.371Z,17.48
2017-05-22T00:32:54.468Z,17.64
2017-05-22T00:33:20.660Z,17.54
2017-05-22T00:33:46.752Z,17.56
2017-05-22T00:34:12.891Z,17.45
2017-05-22T00:34:39.024Z,17.48
2017-05-22T00:35:05.119Z,17.52
2017-05-22T00:35:31.209Z,17.48
2017-05-22T00:35:57.344Z,17.51
2017-05-22T00:36:23.441Z,17.45
2017-05-22T00:36:49.533Z,17.46
2017-05-22T00:37:15.672Z,17.41
2017-05-22T00:37:41.792Z,17.42
2017-05-22T00:38:07.953Z,17.29
2017-05-22T00:38:34.129Z,17.29
2017-05-22T00:39:00.295Z,17.3
2017-05-22T00:39:26.432Z,17.26
2017-05-22T00:39:52.586Z,17.27
2017-05-22T00:40:18.726Z,17.26
2017-05-22T00:40:44.833Z,17.2
2017-05-22T00:41:10.963Z,17.26
2017-05-22T00:41:37.103Z,17.2
2017-05-22T00:42:03.259Z,17.19
2017-05-22T00:42:29.422Z,17.16
2017-05-22T00:42:55.515Z,17.14
2017-05-22T00:43:21.612Z,17.12
2017-05-22T00:43:47.728Z,17.26
2017-05-22T00:44:13.859Z,17.2
2017-05-22T00:44:39.988Z,17.29
2017-05-22T00:45:06.079Z,17.23
2017-05-22T00:45:32.207Z,17.27
2017-05-22T00:45:58.315Z,17.24
2017-05-22T00:46:24.428Z,17.24
2017-05-22T00:46:50.530Z,17.2
2017-05-22T00:47:16.639Z,17.12
2017-05-22T00:47:42.730Z,17.22
2017-05-22T00:48:08.902Z,17.08
2017-05-22T00:48:35.026Z,17.12
2017-05-22T00:49:01.210Z,17.08
2017-05-22T00:49:27.346Z,17.11
2017-05-22T00:49:53.481Z,17.09
2017-05-22T00:50:19.629Z,16.94
2017-05-22T00:50:45.735Z,16.97
2017-05-22T00:51:11.883Z,16.99
2017-05-22T00:51:37.924Z,16.96
2017-05-22T00:52:04.057Z,16.96
2017-05-22T00:52:30.153Z,16.87
2017-05-22T00:52:56.315Z,16.97
2017-05-22T00:53:22.505Z,16.93
2017-05-22T00:53:48.684Z,16.87
2017-05-22T00:54:14.774Z,16.84
2017-05-22T00:54:40.934Z,16.79
2017-05-22T00:55:07.034Z,16.84
2017-05-22T00:55:33.149Z,16.81
2017-05-22T00:55:59.277Z,16.78
2017-05-22T00:56:25.384Z,16.76
2017-05-22T00:56:51.471Z,16.83
2017-05-22T00:57:17.587Z,16.75
2017-05-22T00:57:43.748Z,16.81
2017-05-22T00:58:09.888Z,16.81
2017-05-22T00:58:35.987Z,16.76
2017-05-22T00:59:02.147Z,16.76
2017-05-22T00:59:28.291Z,16.76
2017-05-22T00:59:54.397Z,16.75
2017-05-22T01:00:20.485Z,16.71
2017-05-22T01:00:46.635Z,16.71
2017-05-22T01:01:12.769Z,16.68
2017-05-22T01:01:38.861Z,16.68
2017-05-22T01:02:04.957Z,16.58
2017-05-22T01:02:31.118Z,16.74
2017-05-22T01:02:57.262Z,16.71
2017-05-22T01:03:23.425Z,16.69
2017-05-22T01:03:49.615Z,16.75
2017-05-22T01:04:15.711Z,16.56
2017-05-22T01:04:41.827Z,16.58
2017-05-22T01:05:07.959Z,16.54
2017-05-22T01:05:34.070Z,16.6
2017-05-22T01:06:00.176Z,16.75
2017-05-22T01:06:26.274Z,16.69
2017-05-22T01:06:52.364Z,16.66
2017-05-22T01:07:18.526Z,16.66
2017-05-22T01:07:44.644Z,16.68
2017-05-22T01:08:10.760Z,16.61
2017-05-22T01:08:36.864Z,16.61
2017-05-22T01:09:02.965Z,16.64
2017-05-22T01:09:29.079Z,16.64
2017-05-22T01:09:55.210Z,16.66
2017-05-22T01:10:21.343Z,16.66
2017-05-22T01:10:47.519Z,16.71
2017-05-22T01:11:13.616Z,16.69
2017-05-22T01:11:39.755Z,16.58
2017-05-22T01:12:05.889Z,16.58
2017-05-22T01:12:32.016Z,16.71
2017-05-22T01:12:58.157Z,16.72
2017-05-22T01:13:24.315Z,16.65
2017-05-22T01:13:50.480Z,16.56
2017-05-22T01:14:16.621Z,16.58
2017-05-22T01:14:42.767Z,16.56
2017-05-22T01:15:08.901Z,16.58
2017-05-22T01:15:34.992Z,16.58
2017-05-22T01:16:01.114Z,16.61
2017-05-22T01:16:27.238Z,16.57
2017-05-22T01:16:53.393Z,16.75
2017-05-22T01:17:19.502Z,16.66
2017-05-22T01:17:45.616Z,16.72
2017-05-22T01:18:11.717Z,16.69
2017-05-22T01:18:37.853Z,16.68
2017-05-22T01:19:03.972Z,16.74
2017-05-22T01:19:30.095Z,16.79
2017-05-22T01:19:56.229Z,16.86
2017-05-22T01:20:22.324Z,16.79
2017-05-22T01:20:48.462Z,16.79
2017-05-22T01:21:14.624Z,16.91
2017-05-22T01:21:40.749Z,16.81
2017-05-22T01:22:06.850Z,16.78
2017-05-22T01:22:32.943Z,16.84
2017-05-22T01:22:59.064Z,16.74
2017-05-22T01:23:25.226Z,16.81
2017-05-22T01:23:51.374Z,16.76
2017-05-22T01:24:17.514Z,16.74
2017-05-22T01:24:43.681Z,16.74
2017-05-22T01:25:09.780Z,16.79
2017-05-22T01:25:35.868Z,16.74
2017-05-22T01:26:02.002Z,16.78
2017-05-22T01:26:28.103Z,16.74
2017-05-22T01:26:54.244Z,16.64
2017-05-22T01:27:20.348Z,16.58
2017-05-22T01:27:46.463Z,16.64
2017-05-22T01:28:12.603Z,16.6
2017-05-22T01:28:38.731Z,16.54
2017-05-22T01:29:04.872Z,16.58
2017-05-22T01:29:31.010Z,16.61
2017-05-22T01:29:57.135Z,16.53
2017-05-22T01:30:23.225Z,16.58
2017-05-22T01:30:49.324Z,16.61
2017-05-22T01:31:15.431Z,16.6
2017-05-22T01:31:41.542Z,16.53
2017-05-22T01:32:07.644Z,16.56
2017-05-22T01:32:33.749Z,16.5
2017-05-22T01:32:59.893Z,16.54
2017-05-22T01:33:26.020Z,16.5
2017-05-22T01:33:52.162Z,16.53
2017-05-22T01:34:18.318Z,16.43
2017-05-22T01:34:44.505Z,16.56
2017-05-22T01:35:10.618Z,16.61
2017-05-22T01:35:36.719Z,16.5
2017-05-22T01:36:02.854Z,16.5
2017-05-22T01:36:28.974Z,16.51
2017-05-22T01:36:55.073Z,16.42
2017-05-22T01:37:21.208Z,16.46
2017-05-22T01:37:47.358Z,16.47
2017-05-22T01:38:13.524Z,16.6
2017-05-22T01:38:39.635Z,16.61
2017-05-22T01:39:05.761Z,16.57
2017-05-22T01:39:31.881Z,16.6
2017-05-22T01:39:58.016Z,16.58
2017-05-22T01:40:24.142Z,16.58
2017-05-22T01:40:50.237Z,16.56
2017-05-22T01:41:16.419Z,16.56
2017-05-22T01:41:42.556Z,16.56
2017-05-22T01:42:08.669Z,16.54
2017-05-22T01:42:34.820Z,16.47
2017-05-22T01:43:00.927Z,16.58
2017-05-22T01:43:27.043Z,16.5
2017-05-22T01:43:53.212Z,16.51
2017-05-22T01:44:19.385Z,16.46
2017-05-22T01:44:45.543Z,16.51
2017-05-22T01:45:11.649Z,16.38
2017-05-22T01:45:37.736Z,16.43
2017-05-22T01:46:03.863Z,16.41
2017-05-22T01:46:29.996Z,16.31
2017-05-22T01:46:56.089Z,16.33
2017-05-22T01:47:22.232Z,16.39
2017-05-22T01:47:48.365Z,16.39
2017-05-22T01:48:14.481Z,16.32
2017-05-22T01:48:40.620Z,16.33
2017-05-22T01:49:06.786Z,16.26
2017-05-22T01:49:32.907Z,16.24
2017-05-22T01:49:59.063Z,16.39
2017-05-22T01:50:25.206Z,16.46
2017-05-22T01:50:51.330Z,16.42
2017-05-22T01:51:17.468Z,16.39
2017-05-22T01:51:43.612Z,16.41
2017-05-22T01:52:09.724Z,16.43
2017-05-22T01:52:35.861Z,16.36
2017-05-22T01:53:02.012Z,16.36
2017-05-22T01:53:28.177Z,16.38
2017-05-22T01:53:54.313Z,16.28
2017-05-22T01:54:20.440Z,16.24
2017-05-22T01:54:46.554Z,16.32
2017-05-22T01:55:12.711Z,16.35
2017-05-22T01:55:38.804Z,16.38
2017-05-22T01:56:04.961Z,16.46
2017-05-22T01:56:31.066Z,16.5
2017-05-22T01:56:57.158Z,16.5
2017-05-22T01:57:23.339Z,16.46
2017-05-22T01:57:49.551Z,16.42
2017-05-22T01:58:15.643Z,16.36
2017-05-22T01:58:41.745Z,16.36
2017-05-22T01:59:07.876Z,16.35
2017-05-22T01:59:33.991Z,16.33
2017-05-22T02:00:00.119Z,16.33
2017-05-22T02:00:26.227Z,16.32
2017-05-22T02:00:52.369Z,16.35
2017-05-22T02:01:18.500Z,16.26
2017-05-22T02:01:44.615Z,16.35
2017-05-22T02:02:10.721Z,16.29
2017-05-22T02:02:36.910Z,16.29
2017-05-22T02:03:03.121Z,16.29
2017-05-22T02:03:29.246Z,16.28
2017-05-22T02:03:55.417Z,16.24
2017-05-22T02:04:21.463Z,16.33
2017-05-22T02:04:47.586Z,16.31
2017-05-22T02:05:13.692Z,16.29
2017-05-22T02:05:39.811Z,16.26
2017-05-22T02:06:06.050Z,16.23
2017-05-22T02:06:32.155Z,16.24
2017-05-22T02:06:58.256Z,16.2
2017-05-22T02:07:24.362Z,16.28
2017-05-22T02:07:50.482Z,16.32
2017-05-22T02:08:16.603Z,16.33
2017-05-22T02:08:42.736Z,16.31
2017-05-22T02:09:08.934Z,16.29
2017-05-22T02:09:35.050Z,16.42
2017-05-22T02:10:01.210Z,16.41
2017-05-22T02:10:27.308Z,16.39
2017-05-22T02:10:53.399Z,16.53
2017-05-22T02:11:19.533Z,16.47
2017-05-22T02:11:45.631Z,16.49
2017-05-22T02:12:11.758Z,16.47
2017-05-22T02:12:37.851Z,16.57
2017-05-22T02:13:03.992Z,16.54
2017-05-22T02:13:30.158Z,16.68
2017-05-22T02:13:56.307Z,16.66
2017-05-22T02:14:22.414Z,16.71
2017-05-22T02:14:48.547Z,16.65
2017-05-22T02:15:14.648Z,16.71
2017-05-22T02:15:40.739Z,16.71
2017-05-22T02:16:06.843Z,16.69
2017-05-22T02:16:32.975Z,16.72
2017-05-22T02:16:59.087Z,16.68
2017-05-22T02:17:25.190Z,16.56
2017-05-22T02:17:51.361Z,16.46
2017-05-22T02:18:17.521Z,16.54
2017-05-22T02:18:43.652Z,16.49
2017-05-22T02:19:09.744Z,16.43
2017-05-22T02:19:35.876Z,16.38
2017-05-22T02:20:02.009Z,16.39
2017-05-22T02:20:28.121Z,16.35
2017-05-22T02:20:54.224Z,16.36
2017-05-22T02:21:20.660Z,16.32
2017-05-22T02:21:46.857Z,16.31
2017-05-22T02:22:12.977Z,16.31
2017-05-22T02:22:39.082Z,16.26
2017-05-22T02:23:05.178Z,16.31
2017-05-22T02:23:31.318Z,16.29
2017-05-22T02:23:57.475Z,16.29
2017-05-22T02:24:23.598Z,16.24
2017-05-22T02:24:49.715Z,16.23
2017-05-22T02:25:15.822Z,16.16
2017-05-22T02:25:41.950Z,16.21
2017-05-22T02:26:08.091Z,16.26
2017-05-22T02:26:34.195Z,16.15
2017-05-22T02:27:00.356Z,16.23
2017-05-22T02:27:26.446Z,16.24
2017-05-22T02:27:52.559Z,16.17
2017-05-22T02:28:18.694Z,16.16
2017-05-22T02:28:44.811Z,16.26
2017-05-22T02:29:10.914Z,16.28
2017-05-22T02:29:37.030Z,16.29
2017-05-22T02:30:03.159Z,16.31
2017-05-22T02:30:29.266Z,16.32
2017-05-22T02:30:55.382Z,16.32
2017-05-22T02:31:21.483Z,16.33
2017-05-22T02:31:47.644Z,16.36
2017-05-22T02:32:13.763Z,16.38
2017-05-22T02:32:39.883Z,16.46
2017-05-22T02:33:05.990Z,16.38
2017-05-22T02:33:32.085Z,16.41
2017-05-22T02:33:58.202Z,16.46
2017-05-22T02:34:24.357Z,16.35
2017-05-22T02:34:50.486Z,16.41
2017-05-22T02:35:19.648Z,16.41
2017-05-22T02:35:45.741Z,16.56
2017-05-22T02:36:11.913Z,16.5
2017-05-22T02:36:38.049Z,16.57
2017-05-22T02:37:04.147Z,16.54
2017-05-22T02:37:30.261Z,16.58
2017-05-22T02:37:56.372Z,16.53
2017-05-22T02:38:22.469Z,16.56
2017-05-22T02:38:48.562Z,16.58
2017-05-22T02:39:14.716Z,16.56
2017-05-22T02:39:40.816Z,16.6
2017-05-22T02:40:06.990Z,16.58
2017-05-22T02:40:33.138Z,16.65
2017-05-22T02:40:59.229Z,16.71
2017-05-22T02:41:25.370Z,16.64
2017-05-22T02:41:51.491Z,16.65
2017-05-22T02:42:17.606Z,16.68
2017-05-22T02:42:43.741Z,16.66
2017-05-22T02:43:09.922Z,16.65
2017-05-22T02:43:36.012Z,16.66
2017-05-22T02:44:02.116Z,16.74
2017-05-22T02:44:28.279Z,16.78
2017-05-22T02:44:54.395Z,16.75
2017-05-22T02:45:20.517Z,16.76
2017-05-22T02:45:46.614Z,16.76
2017-05-22T02:46:12.718Z,16.71
2017-05-22T02:46:38.821Z,16.78
2017-05-22T02:47:04.960Z,16.75
2017-05-22T02:47:31.088Z,16.81
2017-05-22T02:47:57.248Z,16.83
2017-05-22T02:48:23.366Z,16.72
2017-05-22T02:48:49.464Z,16.74
2017-05-22T02:49:15.569Z,16.81
2017-05-22T02:49:41.685Z,16.76
2017-05-22T02:50:07.807Z,16.76
2017-05-22T02:50:33.970Z,16.79
2017-05-22T02:51:00.138Z,16.83
2017-05-22T02:51:26.246Z,16.74
2017-05-22T02:51:52.363Z,16.81
2017-05-22T02:52:18.462Z,16.79
2017-05-22T02:52:44.572Z,16.76
2017-05-22T02:53:10.714Z,16.78
2017-05-22T02:53:36.836Z,16.81
2017-05-22T02:54:03.026Z,16.81
2017-05-22T02:54:29.202Z,16.79
2017-05-22T02:54:55.343Z,16.78
2017-05-22T02:55:21.504Z,16.78
2017-05-22T02:55:47.629Z,16.74
2017-05-22T02:56:13.771Z,16.66
2017-05-22T02:56:39.879Z,16.61
2017-05-22T02:57:05.972Z,16.66
2017-05-22T02:57:32.109Z,16.71
2017-05-22T02:57:58.231Z,16.56
2017-05-22T02:58:24.381Z,16.49
2017-05-22T02:58:50.435Z,16.53
2017-05-22T02:59:16.530Z,16.47
2017-05-22T02:59:42.623Z,16.53
2017-05-22T03:00:08.789Z,16.46
2017-05-22T03:00:34.942Z,16.43
2017-05-22T03:01:01.085Z,16.39
2017-05-22T03:01:27.214Z,16.43
2017-05-22T03:01:53.321Z,16.42
2017-05-22T03:02:19.415Z,16.43
2017-05-22T03:02:45.566Z,16.5
2017-05-22T03:03:11.654Z,16.46
2017-05-22T03:03:37.789Z,16.36
2017-05-22T03:04:03.916Z,16.38
2017-05-22T03:04:30.059Z,16.39
2017-05-22T03:04:56.164Z,16.32
2017-05-22T03:05:22.296Z,16.41
2017-05-22T03:05:48.432Z,16.35
2017-05-22T03:06:14.584Z,16.31
2017-05-22T03:06:40.691Z,16.29
2017-05-22T03:07:06.782Z,16.21
2017-05-22T03:07:32.879Z,16.33
2017-05-22T03:07:59.013Z,16.33
2017-05-22T03:08:25.110Z,16.24
2017-05-22T03:08:51.225Z,16.38
2017-05-22T03:09:17.392Z,16.38
2017-05-22T03:09:43.565Z,16.33
2017-05-22T03:10:09.656Z,16.26
2017-05-22T03:10:35.788Z,16.23
2017-05-22T03:11:01.913Z,16.31
2017-05-22T03:11:28.004Z,16.26
2017-05-22T03:11:54.159Z,16.31
2017-05-22T03:12:20.293Z,16.41
2017-05-22T03:12:46.384Z,16.32
2017-05-22T03:13:12.566Z,16.32
2017-05-22T03:13:38.746Z,16.36
2017-05-22T03:14:04.894Z,16.33
2017-05-22T03:14:31.049Z,16.43
2017-05-22T03:14:57.211Z,16.41
2017-05-22T03:15:23.367Z,16.41
2017-05-22T03:15:49.499Z,16.38
2017-05-22T03:16:15.588Z,16.47
2017-05-22T03:16:41.688Z,16.49
2017-05-22T03:17:07.823Z,16.38
2017-05-22T03:17:33.914Z,16.36
2017-05-22T03:18:00.060Z,16.49
2017-05-22T03:18:26.167Z,16.41
2017-05-22T03:18:52.311Z,16.41
2017-05-22T03:19:18.418Z,16.47
2017-05-22T03:19:44.582Z,16.41
2017-05-22T03:20:10.708Z,16.35
2017-05-22T03:20:36.814Z,16.31
2017-05-22T03:21:02.904Z,16.31
2017-05-22T03:21:29.027Z,16.28
2017-05-22T03:21:55.134Z,16.2
2017-05-22T03:22:21.228Z,16.15
2017-05-22T03:22:47.318Z,16.13
2017-05-22T03:23:13.484Z,16
2017-05-22T03:23:39.581Z,16.01
2017-05-22T03:24:05.745Z,15.88
2017-05-22T03:24:31.883Z,15.83
2017-05-22T03:24:58.054Z,15.76
2017-05-22T03:25:24.219Z,15.73
2017-05-22T03:25:50.314Z,15.64
2017-05-22T03:26:16.429Z,15.61
2017-05-22T03:26:42.566Z,15.62
2017-05-22T03:27:08.666Z,15.58
2017-05-22T03:27:34.758Z,15.55
2017-05-22T03:28:00.919Z,15.54
2017-05-22T03:28:27.050Z,15.54
2017-05-22T03:28:53.189Z,15.52
2017-05-22T03:29:19.315Z,15.46
2017-05-22T03:29:45.448Z,15.52
2017-05-22T03:30:11.536Z,15.44
2017-05-22T03:30:37.637Z,15.44
2017-05-22T03:31:03.796Z,15.49
2017-05-22T03:31:29.886Z,15.43
2017-05-22T03:31:55.984Z,15.42
2017-05-22T03:32:22.119Z,15.44
2017-05-22T03:32:48.268Z,15.44
2017-05-22T03:33:14.408Z,15.4
2017-05-22T03:33:40.517Z,15.39
2017-05-22T03:34:06.641Z,15.44
2017-05-22T03:34:32.779Z,15.47
2017-05-22T03:34:58.939Z,15.44
2017-05-22T03:35:25.039Z,15.44
2017-05-22T03:35:51.188Z,15.52
2017-05-22T03:36:17.310Z,15.44
2017-05-22T03:36:43.401Z,15.44
2017-05-22T03:37:09.533Z,15.52
2017-05-22T03:37:35.631Z,15.52
2017-05-22T03:38:01.795Z,15.64
2017-05-22T03:38:27.984Z,15.65
2017-05-22T03:38:54.167Z,15.62
2017-05-22T03:39:20.282Z,15.61
2017-05-22T03:39:46.384Z,15.62
2017-05-22T03:40:12.491Z,15.72
2017-05-22T03:40:38.607Z,15.68
2017-05-22T03:41:04.706Z,15.79
2017-05-22T03:41:30.797Z,15.72
2017-05-22T03:41:56.980Z,15.73
2017-05-22T03:42:23.139Z,15.72
2017-05-22T03:42:49.231Z,15.76
2017-05-22T03:43:15.357Z,15.61
2017-05-22T03:43:41.489Z,15.68
2017-05-22T03:44:07.631Z,15.75
2017-05-22T03:44:33.759Z,15.73
2017-05-22T03:45:00.726Z,15.58
2017-05-22T03:45:27.917Z,15.57
2017-05-22T03:45:54.952Z,15.55
2017-05-22T03:46:22.165Z,15.51
2017-05-22T03:46:49.725Z,15.44
2017-05-22T03:47:17.215Z,15.47
2017-05-22T03:47:43.265Z,15.51
2017-05-22T03:48:09.442Z,15.54
2017-05-22T03:48:35.576Z,15.39
2017-05-22T03:49:01.695Z,15.46
2017-05-22T03:49:27.866Z,15.42
2017-05-22T03:49:54.029Z,15.43
2017-05-22T03:50:20.149Z,15.42
2017-05-22T03:50:46.267Z,15.43
2017-05-22T03:51:12.409Z,15.4
2017-05-22T03:51:38.533Z,15.39
2017-05-22T03:52:04.673Z,15.39
2017-05-22T03:52:30.799Z,15.35
2017-05-22T03:52:56.930Z,15.36
2017-05-22T03:53:23.069Z,15.31
2017-05-22T03:53:49.200Z,15.29
2017-05-22T03:54:15.334Z,15.29
2017-05-22T03:54:41.449Z,15.28
2017-05-22T03:55:07.603Z,15.29
2017-05-22T03:55:33.737Z,15.31
2017-05-22T03:55:59.827Z,15.31
2017-05-22T03:56:25.922Z,15.25
2017-05-22T03:56:52.028Z,15.31
2017-05-22T03:57:18.421Z,15.22
2017-05-22T03:57:44.535Z,15.22
2017-05-22T03:58:10.667Z,15.17
2017-05-22T03:58:36.794Z,15.14
2017-05-22T03:59:02.901Z,15.15
2017-05-22T03:59:29.048Z,15.06
2017-05-22T03:59:55.168Z,15.11
2017-05-22T04:00:21.276Z,15.07
2017-05-22T04:00:47.369Z,15.04
2017-05-22T04:01:13.485Z,15.07
2017-05-22T04:01:39.594Z,15.02
2017-05-22T04:02:05.716Z,14.99
2017-05-22T04:02:31.807Z,15
2017-05-22T04:02:57.990Z,15.04
2017-05-22T04:03:24.144Z,14.97
2017-05-22T04:03:50.271Z,15.03
2017-05-22T04:04:16.391Z,15
2017-05-22T04:04:42.482Z,15.09
2017-05-22T04:05:08.649Z,15.07
2017-05-22T04:05:34.774Z,15.04
2017-05-22T04:06:00.865Z,15.1
2017-05-22T04:06:26.972Z,15.06
2017-05-22T04:06:53.072Z,14.99
2017-05-22T04:07:19.186Z,15.02
2017-05-22T04:07:45.316Z,15
2017-05-22T04:08:11.422Z,14.99
2017-05-22T04:08:37.509Z,15
2017-05-22T04:09:03.657Z,14.97
2017-05-22T04:09:29.803Z,15.02
2017-05-22T04:09:55.933Z,15.02
2017-05-22T04:10:22.058Z,15
2017-05-22T04:10:48.149Z,15.02
2017-05-22T04:11:14.281Z,15.02
2017-05-22T04:11:40.415Z,14.97
2017-05-22T04:12:06.603Z,14.96
2017-05-22T04:12:32.727Z,15.03
2017-05-22T04:12:58.878Z,14.97
2017-05-22T04:13:24.991Z,15.02
2017-05-22T04:13:51.113Z,14.97
2017-05-22T04:14:17.243Z,14.99
2017-05-22T04:14:43.385Z,15.03
2017-05-22T04:15:09.545Z,15.07
2017-05-22T04:15:35.633Z,15.06
2017-05-22T04:16:01.758Z,15.06
2017-05-22T04:16:27.865Z,15.04
2017-05-22T04:16:53.957Z,15.07
2017-05-22T04:17:20.102Z,15.11
2017-05-22T04:17:46.262Z,15.06
2017-05-22T04:18:12.410Z,15.09
2017-05-22T04:18:38.499Z,15.04
2017-05-22T04:19:04.638Z,15.07
2017-05-22T04:19:30.735Z,15.09
2017-05-22T04:19:56.875Z,15.06
2017-05-22T04:20:22.980Z,15.04
2017-05-22T04:20:49.105Z,15.1
2017-05-22T04:21:15.208Z,15.17
2017-05-22T04:21:41.302Z,15.1
2017-05-22T04:22:07.414Z,15.14
2017-05-22T04:22:33.525Z,15.17
2017-05-22T04:22:59.623Z,15.18
2017-05-22T04:23:25.738Z,15.11
2017-05-22T04:23:51.846Z,15.18
2017-05-22T04:24:17.973Z,15.22
2017-05-22T04:24:44.068Z,15.21
2017-05-22T04:25:10.222Z,15.22
2017-05-22T04:25:36.387Z,15.17
2017-05-22T04:26:02.559Z,15.19
2017-05-22T04:26:28.657Z,15.1
2017-05-22T04:26:54.747Z,15.31
2017-05-22T04:27:20.853Z,15.21
2017-05-22T04:27:47.031Z,15.22
2017-05-22T04:28:13.148Z,15.22
2017-05-22T04:28:39.326Z,15.33
2017-05-22T04:29:05.488Z,15.25
2017-05-22T04:29:31.575Z,15.27
2017-05-22T04:29:57.703Z,15.25
2017-05-22T04:30:23.867Z,15.24
2017-05-22T04:30:50.009Z,15.24
2017-05-22T04:31:16.155Z,15.24
2017-05-22T04:31:42.303Z,15.17
2017-05-22T04:32:08.434Z,15.27
2017-05-22T04:32:34.570Z,15.25
2017-05-22T04:33:00.732Z,15.25
2017-05-22T04:33:26.832Z,15.15
2017-05-22T04:33:52.995Z,15.21
2017-05-22T04:34:19.115Z,15.17
2017-05-22T04:34:45.284Z,15.1
2017-05-22T04:35:11.418Z,15.11
2017-05-22T04:35:37.510Z,15.15
2017-05-22T04:36:03.625Z,15.15
2017-05-22T04:36:29.756Z,15.28
2017-05-22T04:36:55.853Z,15.33
2017-05-22T04:37:21.945Z,15.33
2017-05-22T04:37:48.049Z,15.24
2017-05-22T04:38:14.204Z,15.36
2017-05-22T04:38:40.345Z,15.37
2017-05-22T04:39:06.447Z,15.33
2017-05-22T04:39:32.608Z,15.24
2017-05-22T04:39:58.696Z,15.36
2017-05-22T04:40:24.846Z,15.27
2017-05-22T04:40:50.952Z,15.28
2017-05-22T04:41:17.043Z,15.27
2017-05-22T04:41:43.165Z,15.24
2017-05-22T04:42:09.299Z,15.19
2017-05-22T04:42:35.419Z,15.17
2017-05-22T04:43:01.578Z,15.27
2017-05-22T04:43:27.665Z,15.28
2017-05-22T04:43:53.790Z,15.29
2017-05-22T04:44:19.952Z,15.24
2017-05-22T04:44:46.091Z,15.29
2017-05-22T04:45:12.186Z,15.25
2017-05-22T04:45:38.293Z,15.22
2017-05-22T04:46:04.440Z,15.29
2017-05-22T04:46:30.530Z,15.29
2017-05-22T04:46:56.639Z,15.33
2017-05-22T04:47:22.763Z,15.29
2017-05-22T04:47:48.881Z,15.39
2017-05-22T04:48:15.034Z,15.39
2017-05-22T04:48:41.152Z,15.43
2017-05-22T04:49:07.257Z,15.49
2017-05-22T04:49:33.401Z,15.49
2017-05-22T04:49:59.540Z,15.57
2017-05-22T04:50:25.676Z,15.57
2017-05-22T04:50:51.800Z,15.57
2017-05-22T04:51:17.888Z,15.61
2017-05-22T04:51:43.995Z,15.64
2017-05-22T04:52:10.095Z,15.68
2017-05-22T04:52:36.236Z,15.7
2017-05-22T04:53:02.391Z,15.86
2017-05-22T04:53:28.553Z,15.84
2017-05-22T04:53:54.698Z,16.01
2017-05-22T04:54:20.794Z,16.01
2017-05-22T04:54:46.909Z,16.05
2017-05-22T04:55:13.041Z,15.97
2017-05-22T04:55:39.141Z,15.92
2017-05-22T04:56:05.255Z,16.05
2017-05-22T04:56:31.359Z,16.08
2017-05-22T04:56:57.468Z,16.02
2017-05-22T04:57:23.606Z,16
2017-05-22T04:57:49.807Z,16
2017-05-22T04:58:15.943Z,15.98
2017-05-22T04:58:42.058Z,15.97
2017-05-22T04:59:08.207Z,15.9
2017-05-22T04:59:34.332Z,15.86
2017-05-22T05:00:00.462Z,15.79
2017-05-22T05:00:26.570Z,15.9
2017-05-22T05:00:52.656Z,15.9
2017-05-22T05:01:18.757Z,15.83
2017-05-22T05:01:44.890Z,15.75
2017-05-22T05:02:10.981Z,15.68
2017-05-22T05:02:37.101Z,15.68
2017-05-22T05:03:03.235Z,15.64
2017-05-22T05:03:29.354Z,15.73
2017-05-22T05:03:55.470Z,15.72
2017-05-22T05:04:21.620Z,15.68
2017-05-22T05:04:47.734Z,15.72
2017-05-22T05:05:13.888Z,15.61
2017-05-22T05:05:40.031Z,15.61
2017-05-22T05:06:06.129Z,15.55
2017-05-22T05:06:32.235Z,15.59
2017-05-22T05:06:58.329Z,15.64
2017-05-22T05:07:24.423Z,15.52
2017-05-22T05:07:50.559Z,15.57
2017-05-22T05:08:16.656Z,15.57
2017-05-22T05:08:42.772Z,15.64
2017-05-22T05:09:08.906Z,15.64
2017-05-22T05:09:35.005Z,15.64
2017-05-22T05:10:01.147Z,15.73
2017-05-22T05:10:27.274Z,15.75
2017-05-22T05:10:53.391Z,15.75
2017-05-22T05:11:19.502Z,15.72
2017-05-22T05:11:45.600Z,15.77
2017-05-22T05:12:11.691Z,15.88
2017-05-22T05:12:37.855Z,15.8
2017-05-22T05:13:04.058Z,15.77
2017-05-22T05:13:30.144Z,15.79
2017-05-22T05:13:56.277Z,15.82
2017-05-22T05:14:22.466Z,15.83
2017-05-22T05:14:48.577Z,15.82
2017-05-22T05:15:14.678Z,15.82
2017-05-22T05:15:40.786Z,15.86
2017-05-22T05:16:06.878Z,15.91
2017-05-22T05:16:32.981Z,15.91
2017-05-22T05:16:59.098Z,15.94
2017-05-22T05:17:25.230Z,16
2017-05-22T05:17:51.392Z,16
2017-05-22T05:18:17.530Z,16.05
2017-05-22T05:18:43.659Z,16.05
2017-05-22T05:19:09.794Z,16.09
2017-05-22T05:19:35.909Z,16.09
2017-05-22T05:20:02.031Z,16.1
2017-05-22T05:20:28.594Z,16.15
2017-05-22T05:20:54.711Z,16.13
2017-05-22T05:21:20.801Z,16.05
2017-05-22T05:21:46.944Z,16.15
2017-05-22T05:22:13.070Z,16.13
2017-05-22T05:22:39.162Z,16.09
2017-05-22T05:23:05.299Z,16.15
2017-05-22T05:23:31.427Z,16.16
2017-05-22T05:23:57.543Z,16.12
2017-05-22T05:24:23.674Z,16.26
2017-05-22T05:24:49.835Z,16.29
2017-05-22T05:25:15.949Z,16.2
2017-05-22T05:25:42.075Z,16.15
2017-05-22T05:26:08.234Z,16.28
2017-05-22T05:26:34.328Z,16.13
2017-05-22T05:27:00.420Z,16.15
2017-05-22T05:27:26.519Z,16.09
2017-05-22T05:27:52.709Z,16.12
2017-05-22T05:28:18.789Z,16.2
2017-05-22T05:28:44.876Z,16.16
2017-05-22T05:29:11.029Z,16.12
2017-05-22T05:29:37.162Z,16.12
2017-05-22T05:30:03.333Z,16.08
2017-05-22T05:30:29.457Z,16.13
2017-05-22T05:30:55.617Z,16.13
2017-05-22T05:31:21.786Z,16.28
2017-05-22T05:31:47.880Z,16.26
2017-05-22T05:32:13.990Z,16.26
2017-05-22T05:32:40.089Z,16.26
2017-05-22T05:33:06.193Z,16.32
2017-05-22T05:33:32.336Z,16.29
2017-05-22T05:33:58.482Z,16.36
2017-05-22T05:34:24.644Z,16.47
2017-05-22T05:34:50.786Z,16.47
2017-05-22T05:35:16.927Z,16.43
2017-05-22T05:35:43.037Z,16.5
2017-05-22T05:36:09.167Z,16.42
2017-05-22T05:36:35.254Z,16.47
2017-05-22T05:37:01.359Z,16.38
2017-05-22T05:37:27.483Z,16.41
2017-05-22T05:37:53.602Z,16.38